sensor_id;sensor_type;location;lat;lon;timestamp;P1;durP1;ratioP1;P2;durP2;ratioP2
25207;SDS011;13153;52.316;21.166;2023-03-01T00:01:10;207.90;;;78.80;;
25207;SDS011;13153;52.316;21.166;2023-03-01T00:03:49;191.25;;;70.57;;
25207;SDS011;13153;52.316;21.166;2023-03-01T00:06:16;171.20;;;64.55;;
25207;SDS011;13153;52.316;21.166;2023-03-01T00:08:42;173.95;;;64.25;;
25207;SDS011;13153;52.316;21.166;2023-03-01T00:11:13;150.07;;;59.55;;
25207;SDS011;13153;52.316;21.166;2023-03-01T00:13:44;146.23;;;56.40;;
25207;SDS011;13153;52.316;21.166;2023-03-01T00:16:16;132.07;;;53.15;;
25207;SDS011;13153;52.316;21.166;2023-03-01T00:18:55;132.98;;;53.80;;
25207;SDS011;13153;52.316;21.166;2023-03-01T00:21:22;134.23;;;53.05;;
25207;SDS011;13153;52.316;21.166;2023-03-01T00:23:49;130.38;;;52.55;;
25207;SDS011;13153;52.316;21.166;2023-03-01T00:26:17;134.38;;;53.90;;
25207;SDS011;13153;52.316;21.166;2023-03-01T00:28:45;126.50;;;53.08;;
25207;SDS011;13153;52.316;21.166;2023-03-01T00:31:12;124.38;;;49.85;;
25207;SDS011;13153;52.316;21.166;2023-03-01T00:33:42;124.30;;;49.40;;
25207;SDS011;13153;52.316;21.166;2023-03-01T00:36:08;127.72;;;49.38;;
25207;SDS011;13153;52.316;21.166;2023-03-01T00:38:37;114.32;;;49.85;;
25207;SDS011;13153;52.316;21.166;2023-03-01T00:41:10;112.95;;;47.33;;
25207;SDS011;13153;52.316;21.166;2023-03-01T00:43:40;115.03;;;46.80;;
25207;SDS011;13153;52.316;21.166;2023-03-01T00:46:08;106.35;;;46.50;;
25207;SDS011;13153;52.316;21.166;2023-03-01T00:48:42;108.70;;;44.83;;
25207;SDS011;13153;52.316;21.166;2023-03-01T00:51:10;102.72;;;44.63;;
25207;SDS011;13153;52.316;21.166;2023-03-01T00:53:40;108.38;;;43.60;;
25207;SDS011;13153;52.316;21.166;2023-03-01T00:56:07;98.32;;;42.08;;
25207;SDS011;13153;52.316;21.166;2023-03-01T00:58:36;99.32;;;42.42;;
25207;SDS011;13153;52.316;21.166;2023-03-01T01:01:35;93.50;;;41.10;;
25207;SDS011;13153;52.316;21.166;2023-03-01T01:03:59;96.07;;;41.08;;
25207;SDS011;13153;52.316;21.166;2023-03-01T01:06:33;92.57;;;42.40;;
25207;SDS011;13153;52.316;21.166;2023-03-01T01:09:11;93.63;;;41.40;;
25207;SDS011;13153;52.316;21.166;2023-03-01T01:11:45;89.88;;;39.50;;
25207;SDS011;13153;52.316;21.166;2023-03-01T01:14:13;87.43;;;39.40;;
25207;SDS011;13153;52.316;21.166;2023-03-01T01:16:40;88.70;;;38.03;;
25207;SDS011;13153;52.316;21.166;2023-03-01T01:19:06;82.82;;;37.25;;
25207;SDS011;13153;52.316;21.166;2023-03-01T01:21:32;91.82;;;39.40;;
25207;SDS011;13153;52.316;21.166;2023-03-01T01:23:58;92.60;;;38.53;;
25207;SDS011;13153;52.316;21.166;2023-03-01T01:26:25;81.88;;;37.60;;
25207;SDS011;13153;52.316;21.166;2023-03-01T01:28:57;79.85;;;36.10;;
25207;SDS011;13153;52.316;21.166;2023-03-01T01:31:24;85.75;;;37.42;;
25207;SDS011;13153;52.316;21.166;2023-03-01T01:33:52;81.95;;;36.08;;
25207;SDS011;13153;52.316;21.166;2023-03-01T01:36:18;79.10;;;36.08;;
25207;SDS011;13153;52.316;21.166;2023-03-01T01:38:44;85.78;;;37.85;;
25207;SDS011;13153;52.316;21.166;2023-03-01T01:41:11;83.45;;;36.15;;
25207;SDS011;13153;52.316;21.166;2023-03-01T01:43:42;83.10;;;35.83;;
25207;SDS011;13153;52.316;21.166;2023-03-01T01:46:23;85.72;;;35.25;;
25207;SDS011;13153;52.316;21.166;2023-03-01T01:49:00;84.65;;;37.00;;
25207;SDS011;13153;52.316;21.166;2023-03-01T01:51:35;83.28;;;36.78;;
25207;SDS011;13153;52.316;21.166;2023-03-01T01:54:07;79.10;;;36.28;;
25207;SDS011;13153;52.316;21.166;2023-03-01T01:56:39;82.10;;;35.70;;
25207;SDS011;13153;52.316;21.166;2023-03-01T01:59:12;79.20;;;36.65;;
25207;SDS011;13153;52.316;21.166;2023-03-01T02:01:39;87.75;;;37.70;;
25207;SDS011;13153;52.316;21.166;2023-03-01T02:04:05;82.93;;;36.25;;
25207;SDS011;13153;52.316;21.166;2023-03-01T02:06:33;83.05;;;35.92;;
25207;SDS011;13153;52.316;21.166;2023-03-01T02:09:09;79.88;;;36.33;;
25207;SDS011;13153;52.316;21.166;2023-03-01T02:11:40;88.65;;;37.63;;
25207;SDS011;13153;52.316;21.166;2023-03-01T02:14:08;85.85;;;37.22;;
25207;SDS011;13153;52.316;21.166;2023-03-01T02:16:35;89.18;;;37.92;;
25207;SDS011;13153;52.316;21.166;2023-03-01T02:19:01;81.85;;;36.92;;
25207;SDS011;13153;52.316;21.166;2023-03-01T02:24:45;86.45;;;38.08;;
25207;SDS011;13153;52.316;21.166;2023-03-01T02:27:32;85.75;;;37.42;;
25207;SDS011;13153;52.316;21.166;2023-03-01T02:30:44;87.97;;;36.05;;
25207;SDS011;13153;52.316;21.166;2023-03-01T02:33:32;83.78;;;36.72;;
25207;SDS011;13153;52.316;21.166;2023-03-01T02:36:03;81.32;;;37.17;;
25207;SDS011;13153;52.316;21.166;2023-03-01T02:38:44;81.47;;;35.80;;
25207;SDS011;13153;52.316;21.166;2023-03-01T02:41:13;85.43;;;36.65;;
25207;SDS011;13153;52.316;21.166;2023-03-01T02:43:44;83.00;;;38.00;;
25207;SDS011;13153;52.316;21.166;2023-03-01T02:46:15;80.97;;;36.35;;
25207;SDS011;13153;52.316;21.166;2023-03-01T02:48:49;85.20;;;36.58;;
25207;SDS011;13153;52.316;21.166;2023-03-01T02:54:15;87.88;;;37.63;;
25207;SDS011;13153;52.316;21.166;2023-03-01T02:57:12;89.78;;;37.08;;
25207;SDS011;13153;52.316;21.166;2023-03-01T02:59:38;82.38;;;37.33;;
25207;SDS011;13153;52.316;21.166;2023-03-01T03:02:08;86.25;;;37.25;;
25207;SDS011;13153;52.316;21.166;2023-03-01T03:05:07;89.65;;;36.33;;
25207;SDS011;13153;52.316;21.166;2023-03-01T03:07:41;82.25;;;35.67;;
25207;SDS011;13153;52.316;21.166;2023-03-01T03:10:11;87.38;;;35.85;;
25207;SDS011;13153;52.316;21.166;2023-03-01T03:12:53;77.75;;;33.88;;
25207;SDS011;13153;52.316;21.166;2023-03-01T03:15:23;80.18;;;34.63;;
25207;SDS011;13153;52.316;21.166;2023-03-01T03:17:50;79.97;;;36.08;;
25207;SDS011;13153;52.316;21.166;2023-03-01T03:20:19;82.50;;;35.13;;
25207;SDS011;13153;52.316;21.166;2023-03-01T03:22:48;82.13;;;34.97;;
25207;SDS011;13153;52.316;21.166;2023-03-01T03:25:18;76.82;;;34.58;;
25207;SDS011;13153;52.316;21.166;2023-03-01T03:27:46;78.68;;;35.67;;
25207;SDS011;13153;52.316;21.166;2023-03-01T03:30:17;82.03;;;35.10;;
25207;SDS011;13153;52.316;21.166;2023-03-01T03:32:45;86.65;;;36.35;;
25207;SDS011;13153;52.316;21.166;2023-03-01T03:35:17;79.95;;;34.92;;
25207;SDS011;13153;52.316;21.166;2023-03-01T03:37:46;80.00;;;35.30;;
25207;SDS011;13153;52.316;21.166;2023-03-01T03:40:31;82.07;;;34.85;;
25207;SDS011;13153;52.316;21.166;2023-03-01T03:43:03;78.22;;;33.92;;
25207;SDS011;13153;52.316;21.166;2023-03-01T03:45:32;80.07;;;35.33;;
25207;SDS011;13153;52.316;21.166;2023-03-01T03:47:59;78.45;;;34.13;;
25207;SDS011;13153;52.316;21.166;2023-03-01T03:50:25;81.07;;;33.67;;
25207;SDS011;13153;52.316;21.166;2023-03-01T03:52:51;82.50;;;34.40;;
25207;SDS011;13153;52.316;21.166;2023-03-01T03:55:17;79.30;;;34.72;;
25207;SDS011;13153;52.316;21.166;2023-03-01T03:57:44;77.60;;;34.13;;
25207;SDS011;13153;52.316;21.166;2023-03-01T04:00:17;75.88;;;34.33;;
25207;SDS011;13153;52.316;21.166;2023-03-01T04:02:46;74.80;;;33.92;;
25207;SDS011;13153;52.316;21.166;2023-03-01T04:05:14;72.22;;;33.28;;
25207;SDS011;13153;52.316;21.166;2023-03-01T04:07:43;85.45;;;37.55;;
25207;SDS011;13153;52.316;21.166;2023-03-01T04:10:10;78.25;;;35.13;;
25207;SDS011;13153;52.316;21.166;2023-03-01T04:12:45;82.10;;;35.05;;
25207;SDS011;13153;52.316;21.166;2023-03-01T04:15:11;76.47;;;33.28;;
25207;SDS011;13153;52.316;21.166;2023-03-01T04:17:40;74.55;;;33.80;;
25207;SDS011;13153;52.316;21.166;2023-03-01T04:20:15;77.10;;;33.67;;
25207;SDS011;13153;52.316;21.166;2023-03-01T04:22:50;79.22;;;34.38;;
25207;SDS011;13153;52.316;21.166;2023-03-01T04:25:25;77.43;;;33.67;;
25207;SDS011;13153;52.316;21.166;2023-03-01T04:27:51;81.25;;;33.45;;
25207;SDS011;13153;52.316;21.166;2023-03-01T04:30:17;79.65;;;33.17;;
25207;SDS011;13153;52.316;21.166;2023-03-01T04:32:43;82.30;;;34.40;;
25207;SDS011;13153;52.316;21.166;2023-03-01T04:35:09;81.40;;;34.50;;
25207;SDS011;13153;52.316;21.166;2023-03-01T04:37:34;75.15;;;34.17;;
25207;SDS011;13153;52.316;21.166;2023-03-01T04:40:01;77.93;;;34.20;;
25207;SDS011;13153;52.316;21.166;2023-03-01T04:42:38;81.18;;;34.47;;
25207;SDS011;13153;52.316;21.166;2023-03-01T04:45:04;82.40;;;34.42;;
25207;SDS011;13153;52.316;21.166;2023-03-01T04:47:37;77.00;;;34.40;;
25207;SDS011;13153;52.316;21.166;2023-03-01T04:50:09;80.43;;;33.63;;
25207;SDS011;13153;52.316;21.166;2023-03-01T04:52:38;81.05;;;35.22;;
25207;SDS011;13153;52.316;21.166;2023-03-01T04:55:03;81.13;;;35.15;;
25207;SDS011;13153;52.316;21.166;2023-03-01T04:57:31;82.68;;;35.95;;
25207;SDS011;13153;52.316;21.166;2023-03-01T04:59:57;86.88;;;36.58;;
25207;SDS011;13153;52.316;21.166;2023-03-01T05:02:23;82.82;;;35.28;;
25207;SDS011;13153;52.316;21.166;2023-03-01T05:04:49;77.07;;;33.83;;
25207;SDS011;13153;52.316;21.166;2023-03-01T05:07:15;77.85;;;35.38;;
25207;SDS011;13153;52.316;21.166;2023-03-01T05:09:45;77.30;;;34.90;;
25207;SDS011;13153;52.316;21.166;2023-03-01T05:12:11;78.80;;;33.92;;
25207;SDS011;13153;52.316;21.166;2023-03-01T05:14:38;78.80;;;34.90;;
25207;SDS011;13153;52.316;21.166;2023-03-01T05:17:05;85.50;;;36.45;;
25207;SDS011;13153;52.316;21.166;2023-03-01T05:19:31;77.53;;;33.70;;
25207;SDS011;13153;52.316;21.166;2023-03-01T05:21:58;79.07;;;33.03;;
25207;SDS011;13153;52.316;21.166;2023-03-01T05:24:27;78.03;;;34.47;;
25207;SDS011;13153;52.316;21.166;2023-03-01T05:26:58;84.55;;;34.85;;
25207;SDS011;13153;52.316;21.166;2023-03-01T05:29:25;76.05;;;34.65;;
25207;SDS011;13153;52.316;21.166;2023-03-01T05:31:53;79.60;;;35.03;;
25207;SDS011;13153;52.316;21.166;2023-03-01T05:34:32;85.65;;;36.15;;
25207;SDS011;13153;52.316;21.166;2023-03-01T05:37:01;78.75;;;34.63;;
25207;SDS011;13153;52.316;21.166;2023-03-01T05:39:28;82.40;;;35.55;;
25207;SDS011;13153;52.316;21.166;2023-03-01T05:41:55;87.25;;;36.95;;
25207;SDS011;13153;52.316;21.166;2023-03-01T05:44:24;85.93;;;36.25;;
25207;SDS011;13153;52.316;21.166;2023-03-01T05:46:51;87.95;;;38.10;;
25207;SDS011;13153;52.316;21.166;2023-03-01T05:49:17;89.45;;;37.88;;
25207;SDS011;13153;52.316;21.166;2023-03-01T05:51:47;93.60;;;39.75;;
25207;SDS011;13153;52.316;21.166;2023-03-01T05:54:15;110.20;;;42.92;;
25207;SDS011;13153;52.316;21.166;2023-03-01T05:56:41;102.57;;;41.53;;
25207;SDS011;13153;52.316;21.166;2023-03-01T05:59:09;99.82;;;42.13;;
25207;SDS011;13153;52.316;21.166;2023-03-01T06:01:35;97.50;;;40.00;;
25207;SDS011;13153;52.316;21.166;2023-03-01T06:04:02;90.93;;;38.72;;
25207;SDS011;13153;52.316;21.166;2023-03-01T06:06:29;91.93;;;38.20;;
25207;SDS011;13153;52.316;21.166;2023-03-01T06:09:00;89.65;;;39.13;;
25207;SDS011;13153;52.316;21.166;2023-03-01T06:11:25;90.32;;;38.35;;
25207;SDS011;13153;52.316;21.166;2023-03-01T06:13:51;87.68;;;38.88;;
25207;SDS011;13153;52.316;21.166;2023-03-01T06:16:17;87.93;;;39.50;;
25207;SDS011;13153;52.316;21.166;2023-03-01T06:18:43;86.93;;;38.08;;
25207;SDS011;13153;52.316;21.166;2023-03-01T06:21:08;84.07;;;37.53;;
25207;SDS011;13153;52.316;21.166;2023-03-01T06:23:34;86.10;;;37.30;;
25207;SDS011;13153;52.316;21.166;2023-03-01T06:26:00;93.30;;;37.22;;
25207;SDS011;13153;52.316;21.166;2023-03-01T06:28:31;84.07;;;37.13;;
25207;SDS011;13153;52.316;21.166;2023-03-01T06:30:57;79.07;;;35.85;;
25207;SDS011;13153;52.316;21.166;2023-03-01T06:33:23;81.47;;;35.63;;
25207;SDS011;13153;52.316;21.166;2023-03-01T06:35:49;82.35;;;36.42;;
25207;SDS011;13153;52.316;21.166;2023-03-01T06:38:16;86.63;;;37.20;;
25207;SDS011;13153;52.316;21.166;2023-03-01T06:40:43;83.15;;;36.72;;
25207;SDS011;13153;52.316;21.166;2023-03-01T06:43:16;84.55;;;37.40;;
25207;SDS011;13153;52.316;21.166;2023-03-01T06:45:41;84.68;;;37.55;;
25207;SDS011;13153;52.316;21.166;2023-03-01T06:48:07;88.70;;;38.72;;
25207;SDS011;13153;52.316;21.166;2023-03-01T06:50:34;84.22;;;38.13;;
25207;SDS011;13153;52.316;21.166;2023-03-01T06:53:00;84.65;;;36.83;;
25207;SDS011;13153;52.316;21.166;2023-03-01T06:55:27;84.38;;;37.05;;
25207;SDS011;13153;52.316;21.166;2023-03-01T06:57:57;81.65;;;36.35;;
25207;SDS011;13153;52.316;21.166;2023-03-01T07:00:26;85.72;;;37.47;;
25207;SDS011;13153;52.316;21.166;2023-03-01T07:02:53;83.50;;;36.90;;
25207;SDS011;13153;52.316;21.166;2023-03-01T07:05:20;79.00;;;36.00;;
25207;SDS011;13153;52.316;21.166;2023-03-01T07:07:46;75.72;;;36.20;;
25207;SDS011;13153;52.316;21.166;2023-03-01T07:10:12;77.95;;;34.50;;
25207;SDS011;13153;52.316;21.166;2023-03-01T07:12:38;79.55;;;35.75;;
25207;SDS011;13153;52.316;21.166;2023-03-01T07:15:04;76.55;;;34.47;;
25207;SDS011;13153;52.316;21.166;2023-03-01T07:17:31;74.68;;;33.80;;
25207;SDS011;13153;52.316;21.166;2023-03-01T07:19:57;70.93;;;33.58;;
25207;SDS011;13153;52.316;21.166;2023-03-01T07:22:22;73.13;;;32.90;;
25207;SDS011;13153;52.316;21.166;2023-03-01T07:24:48;73.15;;;33.42;;
25207;SDS011;13153;52.316;21.166;2023-03-01T07:27:14;70.53;;;33.03;;
25207;SDS011;13153;52.316;21.166;2023-03-01T07:29:40;73.78;;;33.30;;
25207;SDS011;13153;52.316;21.166;2023-03-01T07:32:06;71.20;;;32.33;;
25207;SDS011;13153;52.316;21.166;2023-03-01T07:34:36;67.63;;;32.17;;
25207;SDS011;13153;52.316;21.166;2023-03-01T07:37:01;69.13;;;32.35;;
25207;SDS011;13153;52.316;21.166;2023-03-01T07:39:27;66.80;;;31.73;;
25207;SDS011;13153;52.316;21.166;2023-03-01T07:41:53;67.95;;;31.35;;
25207;SDS011;13153;52.316;21.166;2023-03-01T07:44:19;70.13;;;31.05;;
25207;SDS011;13153;52.316;21.166;2023-03-01T07:46:45;66.03;;;30.65;;
25207;SDS011;13153;52.316;21.166;2023-03-01T07:49:10;68.93;;;30.20;;
25207;SDS011;13153;52.316;21.166;2023-03-01T07:51:36;59.67;;;28.00;;
25207;SDS011;13153;52.316;21.166;2023-03-01T07:54:02;62.15;;;29.95;;
25207;SDS011;13153;52.316;21.166;2023-03-01T07:56:28;59.03;;;27.02;;
25207;SDS011;13153;52.316;21.166;2023-03-01T07:58:54;55.92;;;26.30;;
25207;SDS011;13153;52.316;21.166;2023-03-01T08:01:22;58.75;;;26.70;;
25207;SDS011;13153;52.316;21.166;2023-03-01T08:03:48;57.53;;;26.23;;
25207;SDS011;13153;52.316;21.166;2023-03-01T08:06:14;53.72;;;26.90;;
25207;SDS011;13153;52.316;21.166;2023-03-01T08:08:42;64.03;;;27.23;;
25207;SDS011;13153;52.316;21.166;2023-03-01T08:11:10;54.17;;;26.42;;
25207;SDS011;13153;52.316;21.166;2023-03-01T08:13:38;60.00;;;27.23;;
25207;SDS011;13153;52.316;21.166;2023-03-01T08:16:06;58.80;;;26.20;;
25207;SDS011;13153;52.316;21.166;2023-03-01T08:18:37;56.97;;;25.73;;
25207;SDS011;13153;52.316;21.166;2023-03-01T08:23:32;48.33;;;24.65;;
25207;SDS011;13153;52.316;21.166;2023-03-01T08:28:37;55.47;;;25.63;;
25207;SDS011;13153;52.316;21.166;2023-03-01T08:34:06;48.15;;;24.77;;
25207;SDS011;13153;52.316;21.166;2023-03-01T08:36:37;46.63;;;23.38;;
25207;SDS011;13153;52.316;21.166;2023-03-01T08:39:07;50.42;;;22.70;;
25207;SDS011;13153;52.316;21.166;2023-03-01T08:41:34;47.33;;;23.23;;
25207;SDS011;13153;52.316;21.166;2023-03-01T08:44:00;49.22;;;23.60;;
25207;SDS011;13153;52.316;21.166;2023-03-01T08:46:27;49.22;;;23.83;;
25207;SDS011;13153;52.316;21.166;2023-03-01T08:48:56;52.88;;;24.15;;
25207;SDS011;13153;52.316;21.166;2023-03-01T08:51:23;47.92;;;22.75;;
25207;SDS011;13153;52.316;21.166;2023-03-01T08:53:50;47.13;;;21.77;;
25207;SDS011;13153;52.316;21.166;2023-03-01T08:56:17;44.40;;;21.77;;
25207;SDS011;13153;52.316;21.166;2023-03-01T08:58:47;47.45;;;21.90;;
25207;SDS011;13153;52.316;21.166;2023-03-01T09:01:15;41.00;;;20.67;;
25207;SDS011;13153;52.316;21.166;2023-03-01T09:03:44;43.08;;;21.23;;
25207;SDS011;13153;52.316;21.166;2023-03-01T09:06:11;42.83;;;21.10;;
25207;SDS011;13153;52.316;21.166;2023-03-01T09:08:39;47.05;;;21.95;;
25207;SDS011;13153;52.316;21.166;2023-03-01T09:11:12;41.95;;;21.42;;
25207;SDS011;13153;52.316;21.166;2023-03-01T09:13:41;45.17;;;21.75;;
25207;SDS011;13153;52.316;21.166;2023-03-01T09:16:08;39.83;;;20.48;;
25207;SDS011;13153;52.316;21.166;2023-03-01T09:18:36;42.50;;;20.92;;
25207;SDS011;13153;52.316;21.166;2023-03-01T09:21:03;44.35;;;21.02;;
25207;SDS011;13153;52.316;21.166;2023-03-01T09:23:39;39.20;;;20.38;;
25207;SDS011;13153;52.316;21.166;2023-03-01T09:26:11;46.42;;;20.45;;
25207;SDS011;13153;52.316;21.166;2023-03-01T09:28:49;39.38;;;20.40;;
25207;SDS011;13153;52.316;21.166;2023-03-01T09:31:21;41.38;;;20.58;;
25207;SDS011;13153;52.316;21.166;2023-03-01T09:33:50;42.88;;;21.05;;
25207;SDS011;13153;52.316;21.166;2023-03-01T09:36:21;41.90;;;21.38;;
25207;SDS011;13153;52.316;21.166;2023-03-01T09:38:50;46.13;;;21.85;;
25207;SDS011;13153;52.316;21.166;2023-03-01T09:41:22;44.20;;;20.88;;
25207;SDS011;13153;52.316;21.166;2023-03-01T09:46:58;44.47;;;21.60;;
25207;SDS011;13153;52.316;21.166;2023-03-01T09:49:26;42.28;;;20.85;;
25207;SDS011;13153;52.316;21.166;2023-03-01T09:54:51;43.10;;;21.25;;
25207;SDS011;13153;52.316;21.166;2023-03-01T09:57:33;41.40;;;21.55;;
25207;SDS011;13153;52.316;21.166;2023-03-01T10:11:22;43.63;;;21.92;;
25207;SDS011;13153;52.316;21.166;2023-03-01T10:19:28;39.67;;;20.10;;
25207;SDS011;13153;52.316;21.166;2023-03-01T10:22:10;38.25;;;19.05;;
25207;SDS011;13153;52.316;21.166;2023-03-01T10:24:46;37.03;;;18.70;;
25207;SDS011;13153;52.316;21.166;2023-03-01T10:27:59;36.70;;;18.13;;
25207;SDS011;13153;52.316;21.166;2023-03-01T10:30:17;31.90;;;17.63;;
25207;SDS011;13153;52.316;21.166;2023-03-01T10:33:14;36.70;;;17.23;;
25207;SDS011;13153;52.316;21.166;2023-03-01T10:35:48;31.50;;;16.48;;
25207;SDS011;13153;52.316;21.166;2023-03-01T10:38:14;31.83;;;16.67;;
25207;SDS011;13153;52.316;21.166;2023-03-01T10:41:04;34.90;;;17.10;;
25207;SDS011;13153;52.316;21.166;2023-03-01T10:43:43;32.63;;;17.15;;
25207;SDS011;13153;52.316;21.166;2023-03-01T10:46:29;30.83;;;16.40;;
25207;SDS011;13153;52.316;21.166;2023-03-01T10:51:47;33.85;;;17.13;;
25207;SDS011;13153;52.316;21.166;2023-03-01T10:56:54;34.87;;;17.20;;
25207;SDS011;13153;52.316;21.166;2023-03-01T10:59:28;33.30;;;16.30;;
25207;SDS011;13153;52.316;21.166;2023-03-01T11:02:38;31.88;;;15.80;;
25207;SDS011;13153;52.316;21.166;2023-03-01T11:04:58;26.60;;;13.70;;
25207;SDS011;13153;52.316;21.166;2023-03-01T11:07:54;25.55;;;13.90;;
25207;SDS011;13153;52.316;21.166;2023-03-01T11:10:30;27.33;;;14.15;;
25207;SDS011;13153;52.316;21.166;2023-03-01T11:13:13;29.00;;;14.80;;
25207;SDS011;13153;52.316;21.166;2023-03-01T11:16:00;31.20;;;14.70;;
25207;SDS011;13153;52.316;21.166;2023-03-01T11:18:31;28.50;;;14.95;;
25207;SDS011;13153;52.316;21.166;2023-03-01T11:20:57;32.75;;;15.35;;
25207;SDS011;13153;52.316;21.166;2023-03-01T11:23:27;33.83;;;14.77;;
25207;SDS011;13153;52.316;21.166;2023-03-01T11:25:58;25.95;;;14.68;;
25207;SDS011;13153;52.316;21.166;2023-03-01T11:28:33;26.75;;;14.82;;
25207;SDS011;13153;52.316;21.166;2023-03-01T11:31:06;28.40;;;15.25;;
25207;SDS011;13153;52.316;21.166;2023-03-01T11:42:11;31.63;;;14.85;;
25207;SDS011;13153;52.316;21.166;2023-03-01T11:44:46;29.15;;;15.35;;
25207;SDS011;13153;52.316;21.166;2023-03-01T11:47:40;29.75;;;14.10;;
25207;SDS011;13153;52.316;21.166;2023-03-01T11:50:40;29.23;;;15.40;;
25207;SDS011;13153;52.316;21.166;2023-03-01T11:53:19;30.38;;;15.73;;
25207;SDS011;13153;52.316;21.166;2023-03-01T11:56:31;27.15;;;14.88;;
25207;SDS011;13153;52.316;21.166;2023-03-01T11:59:16;30.38;;;15.35;;
25207;SDS011;13153;52.316;21.166;2023-03-01T12:10:37;25.33;;;14.73;;
25207;SDS011;13153;52.316;21.166;2023-03-01T12:16:51;30.15;;;15.32;;
25207;SDS011;13153;52.316;21.166;2023-03-01T12:22:39;29.37;;;15.57;;
25207;SDS011;13153;52.316;21.166;2023-03-01T12:25:45;28.92;;;15.85;;
25207;SDS011;13153;52.316;21.166;2023-03-01T12:31:54;29.23;;;15.95;;
25207;SDS011;13153;52.316;21.166;2023-03-01T12:52:11;27.17;;;15.23;;
25207;SDS011;13153;52.316;21.166;2023-03-01T12:54:54;29.58;;;16.10;;
25207;SDS011;13153;52.316;21.166;2023-03-01T12:57:38;31.77;;;17.15;;
25207;SDS011;13153;52.316;21.166;2023-03-01T13:03:25;31.55;;;15.82;;
25207;SDS011;13153;52.316;21.166;2023-03-01T13:06:56;29.67;;;15.55;;
25207;SDS011;13153;52.316;21.166;2023-03-01T13:09:27;30.75;;;16.10;;
25207;SDS011;13153;52.316;21.166;2023-03-01T13:15:24;239.57;;;32.40;;
25207;SDS011;13153;52.316;21.166;2023-03-01T13:17:59;44.45;;;18.17;;
25207;SDS011;13153;52.316;21.166;2023-03-01T13:26:02;35.63;;;17.27;;
25207;SDS011;13153;52.316;21.166;2023-03-01T13:28:53;121.18;;;22.92;;
25207;SDS011;13153;52.316;21.166;2023-03-01T13:33:54;35.50;;;17.92;;
25207;SDS011;13153;52.316;21.166;2023-03-01T13:44:17;31.15;;;16.80;;
25207;SDS011;13153;52.316;21.166;2023-03-01T13:46:45;30.20;;;16.60;;
25207;SDS011;13153;52.316;21.166;2023-03-01T13:49:16;31.85;;;16.35;;
25207;SDS011;13153;52.316;21.166;2023-03-01T13:51:50;26.88;;;15.38;;
25207;SDS011;13153;52.316;21.166;2023-03-01T13:54:21;25.88;;;14.07;;
25207;SDS011;13153;52.316;21.166;2023-03-01T13:56:55;26.30;;;14.10;;
25207;SDS011;13153;52.316;21.166;2023-03-01T13:59:24;30.83;;;15.75;;
25207;SDS011;13153;52.316;21.166;2023-03-01T14:01:55;31.95;;;16.08;;
25207;SDS011;13153;52.316;21.166;2023-03-01T14:04:24;39.03;;;18.20;;
25207;SDS011;13153;52.316;21.166;2023-03-01T14:07:20;35.17;;;18.52;;
25207;SDS011;13153;52.316;21.166;2023-03-01T14:09:54;33.55;;;17.45;;
25207;SDS011;13153;52.316;21.166;2023-03-01T14:12:35;33.60;;;17.00;;
25207;SDS011;13153;52.316;21.166;2023-03-01T14:15:14;30.52;;;17.08;;
25207;SDS011;13153;52.316;21.166;2023-03-01T14:18:12;35.15;;;17.48;;
25207;SDS011;13153;52.316;21.166;2023-03-01T14:20:47;37.78;;;17.33;;
25207;SDS011;13153;52.316;21.166;2023-03-01T14:23:18;40.38;;;17.42;;
25207;SDS011;13153;52.316;21.166;2023-03-01T14:25:49;31.17;;;17.35;;
25207;SDS011;13153;52.316;21.166;2023-03-01T14:28:25;33.70;;;17.05;;
25207;SDS011;13153;52.316;21.166;2023-03-01T14:30:59;32.55;;;17.20;;
25207;SDS011;13153;52.316;21.166;2023-03-01T14:33:28;29.27;;;16.63;;
25207;SDS011;13153;52.316;21.166;2023-03-01T14:38:40;32.00;;;16.95;;
25207;SDS011;13153;52.316;21.166;2023-03-01T14:41:18;27.60;;;16.08;;
25207;SDS011;13153;52.316;21.166;2023-03-01T14:43:52;30.98;;;16.45;;
25207;SDS011;13153;52.316;21.166;2023-03-01T14:46:33;31.77;;;15.65;;
25207;SDS011;13153;52.316;21.166;2023-03-01T14:49:09;31.73;;;16.38;;
25207;SDS011;13153;52.316;21.166;2023-03-01T14:51:57;30.38;;;16.77;;
25207;SDS011;13153;52.316;21.166;2023-03-01T14:57:38;34.67;;;16.25;;
25207;SDS011;13153;52.316;21.166;2023-03-01T15:00:12;30.95;;;16.23;;
25207;SDS011;13153;52.316;21.166;2023-03-01T15:02:50;29.02;;;16.10;;
25207;SDS011;13153;52.316;21.166;2023-03-01T15:05:20;31.23;;;16.02;;
25207;SDS011;13153;52.316;21.166;2023-03-01T15:07:56;30.52;;;16.42;;
25207;SDS011;13153;52.316;21.166;2023-03-01T15:10:27;33.58;;;17.48;;
25207;SDS011;13153;52.316;21.166;2023-03-01T15:13:11;37.25;;;20.35;;
25207;SDS011;13153;52.316;21.166;2023-03-01T15:15:43;36.88;;;17.85;;
25207;SDS011;13153;52.316;21.166;2023-03-01T15:20:37;33.42;;;17.70;;
25207;SDS011;13153;52.316;21.166;2023-03-01T15:23:04;31.02;;;16.77;;
25207;SDS011;13153;52.316;21.166;2023-03-01T15:25:31;35.78;;;17.20;;
25207;SDS011;13153;52.316;21.166;2023-03-01T15:27:59;38.55;;;18.67;;
25207;SDS011;13153;52.316;21.166;2023-03-01T15:30:31;38.20;;;19.83;;
25207;SDS011;13153;52.316;21.166;2023-03-01T15:35:56;32.55;;;17.50;;
25207;SDS011;13153;52.316;21.166;2023-03-01T15:38:55;34.90;;;18.15;;
25207;SDS011;13153;52.316;21.166;2023-03-01T15:44:14;37.45;;;18.08;;
25207;SDS011;13153;52.316;21.166;2023-03-01T15:46:53;34.47;;;18.92;;
25207;SDS011;13153;52.316;21.166;2023-03-01T15:52:19;39.58;;;18.98;;
25207;SDS011;13153;52.316;21.166;2023-03-01T15:55:15;39.33;;;19.77;;
25207;SDS011;13153;52.316;21.166;2023-03-01T15:57:45;42.00;;;22.23;;
25207;SDS011;13153;52.316;21.166;2023-03-01T16:00:11;47.92;;;24.55;;
25207;SDS011;13153;52.316;21.166;2023-03-01T16:02:39;43.33;;;24.48;;
25207;SDS011;13153;52.316;21.166;2023-03-01T16:07:44;46.30;;;20.85;;
25207;SDS011;13153;52.316;21.166;2023-03-01T16:10:10;38.55;;;19.45;;
25207;SDS011;13153;52.316;21.166;2023-03-01T16:12:36;40.55;;;21.05;;
25207;SDS011;13153;52.316;21.166;2023-03-01T16:15:04;46.53;;;23.83;;
25207;SDS011;13153;52.316;21.166;2023-03-01T16:17:47;45.38;;;24.58;;
25207;SDS011;13153;52.316;21.166;2023-03-01T16:20:14;46.85;;;23.83;;
25207;SDS011;13153;52.316;21.166;2023-03-01T16:22:43;47.92;;;24.48;;
25207;SDS011;13153;52.316;21.166;2023-03-01T16:25:14;60.58;;;25.02;;
25207;SDS011;13153;52.316;21.166;2023-03-01T16:27:43;90.93;;;39.38;;
25207;SDS011;13153;52.316;21.166;2023-03-01T16:30:11;87.93;;;36.53;;
25207;SDS011;13153;52.316;21.166;2023-03-01T16:32:40;60.70;;;27.17;;
25207;SDS011;13153;52.316;21.166;2023-03-01T16:35:09;46.47;;;24.20;;
25207;SDS011;13153;52.316;21.166;2023-03-01T16:37:38;54.88;;;25.25;;
25207;SDS011;13153;52.316;21.166;2023-03-01T16:40:05;56.60;;;25.25;;
25207;SDS011;13153;52.316;21.166;2023-03-01T16:42:48;55.60;;;27.80;;
25207;SDS011;13153;52.316;21.166;2023-03-01T16:45:15;62.83;;;27.10;;